sensor_id;sensor_type;location;lat;lon;timestamp;temperature;humidity
37289;DHT22;23174;49.462;11.000;2022-12-29T17:26:26;13.10;99.90
37289;DHT22;23174;49.462;11.000;2022-12-29T17:28:31;12.20;99.90
37289;DHT22;23174;49.462;11.000;2022-12-29T17:30:33;11.90;99.90
37289;DHT22;23174;49.462;11.000;2022-12-29T17:32:34;11.70;99.90
37289;DHT22;23174;49.462;11.000;2022-12-29T17:34:34;11.60;99.90
37289;DHT22;23174;49.462;11.000;2022-12-29T17:36:35;11.50;99.90
37289;DHT22;23174;49.462;11.000;2022-12-29T17:38:35;11.40;99.90
37289;DHT22;23174;49.462;11.000;2022-12-29T17:40:36;11.40;99.90
37289;DHT22;23174;49.462;11.000;2022-12-29T17:42:42;11.30;99.90
37289;DHT22;23174;49.462;11.000;2022-12-29T17:44:43;11.30;99.90
37289;DHT22;23174;49.462;11.000;2022-12-29T17:46:47;11.20;99.90
37289;DHT22;23174;49.462;11.000;2022-12-29T17:48:48;11.20;99.90
37289;DHT22;23174;49.462;11.000;2022-12-29T17:50:50;11.20;99.90
37289;DHT22;23174;49.462;11.000;2022-12-29T17:52:53;11.20;99.90
37289;DHT22;23174;49.462;11.000;2022-12-29T17:54:54;11.00;99.90
37289;DHT22;23174;49.462;11.000;2022-12-29T17:56:56;11.10;99.90
37289;DHT22;23174;49.462;11.000;2022-12-29T17:58:56;11.00;99.90
37289;DHT22;23174;49.462;11.000;2022-12-29T18:01:01;11.00;99.90
37289;DHT22;23174;49.462;11.000;2022-12-29T18:03:02;11.00;99.90
37289;DHT22;23174;49.462;11.000;2022-12-29T18:05:05;11.00;99.90
37289;DHT22;23174;49.462;11.000;2022-12-29T18:07:10;10.90;99.90
37289;DHT22;23174;49.462;11.000;2022-12-29T18:09:11;10.90;99.90
37289;DHT22;23174;49.462;11.000;2022-12-29T18:11:23;10.80;99.90
37289;DHT22;23174;49.462;11.000;2022-12-29T18:13:29;10.90;99.90
37289;DHT22;23174;49.462;11.000;2022-12-29T18:15:34;10.80;99.90
37289;DHT22;23174;49.462;11.000;2022-12-29T18:17:38;10.80;99.90
37289;DHT22;23174;49.462;11.000;2022-12-29T18:19:38;10.80;99.90
37289;DHT22;23174;49.462;11.000;2022-12-29T18:21:40;10.70;99.90
37289;DHT22;23174;49.462;11.000;2022-12-29T18:23:42;10.70;99.90
37289;DHT22;23174;49.462;11.000;2022-12-29T18:27:47;10.70;99.90
37289;DHT22;23174;49.462;11.000;2022-12-29T18:29:48;10.60;99.90
37289;DHT22;23174;49.462;11.000;2022-12-29T18:31:48;10.60;99.90
37289;DHT22;23174;49.462;11.000;2022-12-29T18:33:50;10.60;99.90
37289;DHT22;23174;49.462;11.000;2022-12-29T18:35:55;10.60;99.90
37289;DHT22;23174;49.462;11.000;2022-12-29T18:37:56;10.60;99.90
37289;DHT22;23174;49.462;11.000;2022-12-29T18:39:57;10.60;99.90
37289;DHT22;23174;49.462;11.000;2022-12-29T18:41:58;10.50;99.90
37289;DHT22;23174;49.462;11.000;2022-12-29T18:43:59;10.60;99.90
37289;DHT22;23174;49.462;11.000;2022-12-29T18:46:00;10.60;99.90
37289;DHT22;23174;49.462;11.000;2022-12-29T18:48:00;10.60;99.90
37289;DHT22;23174;49.462;11.000;2022-12-29T18:50:01;10.60;99.90
37289;DHT22;23174;49.462;11.000;2022-12-29T18:52:01;10.60;99.90
37289;DHT22;23174;49.462;11.000;2022-12-29T18:54:02;10.60;99.90
37289;DHT22;23174;49.462;11.000;2022-12-29T18:56:03;10.70;99.90
37289;DHT22;23174;49.462;11.000;2022-12-29T18:58:03;10.60;99.90
37289;DHT22;23174;49.462;11.000;2022-12-29T19:00:04;10.60;99.90
37289;DHT22;23174;49.462;11.000;2022-12-29T19:02:05;10.50;99.90
37289;DHT22;23174;49.462;11.000;2022-12-29T19:04:06;10.50;99.90
37289;DHT22;23174;49.462;11.000;2022-12-29T19:06:07;10.60;99.90
37289;DHT22;23174;49.462;11.000;2022-12-29T19:08:09;10.50;99.90
37289;DHT22;23174;49.462;11.000;2022-12-29T19:10:10;10.50;99.90
37289;DHT22;23174;49.462;11.000;2022-12-29T19:12:14;10.60;99.90
37289;DHT22;23174;49.462;11.000;2022-12-29T19:14:15;10.60;99.90
37289;DHT22;23174;49.462;11.000;2022-12-29T19:16:19;10.60;99.90
37289;DHT22;23174;49.462;11.000;2022-12-29T19:18:22;10.60;99.90
37289;DHT22;23174;49.462;11.000;2022-12-29T19:20:40;10.60;99.90
37289;DHT22;23174;49.462;11.000;2022-12-29T19:22:41;10.60;99.90
37289;DHT22;23174;49.462;11.000;2022-12-29T19:24:42;10.60;99.90
37289;DHT22;23174;49.462;11.000;2022-12-29T19:26:42;10.60;99.90
37289;DHT22;23174;49.462;11.000;2022-12-29T19:28:43;10.60;99.90
37289;DHT22;23174;49.462;11.000;2022-12-29T19:30:44;10.60;99.90
37289;DHT22;23174;49.462;11.000;2022-12-29T19:32:47;10.60;99.90
37289;DHT22;23174;49.462;11.000;2022-12-29T19:34:48;10.50;99.90
37289;DHT22;23174;49.462;11.000;2022-12-29T19:36:49;10.60;99.90
37289;DHT22;23174;49.462;11.000;2022-12-29T19:38:49;10.60;99.90
37289;DHT22;23174;49.462;11.000;2022-12-29T19:40:50;10.70;99.90
37289;DHT22;23174;49.462;11.000;2022-12-29T19:42:51;10.60;99.90
37289;DHT22;23174;49.462;11.000;2022-12-29T19:44:51;10.70;99.90
37289;DHT22;23174;49.462;11.000;2022-12-29T19:46:52;10.70;99.90
37289;DHT22;23174;49.462;11.000;2022-12-29T19:48:53;10.70;99.90
37289;DHT22;23174;49.462;11.000;2022-12-29T19:51:09;10.60;99.90
37289;DHT22;23174;49.462;11.000;2022-12-29T19:53:10;10.60;99.90
37289;DHT22;23174;49.462;11.000;2022-12-29T19:55:14;10.50;99.90
37289;DHT22;23174;49.462;11.000;2022-12-29T19:57:15;10.60;99.90
37289;DHT22;23174;49.462;11.000;2022-12-29T19:59:15;10.60;99.90
37289;DHT22;23174;49.462;11.000;2022-12-29T20:01:18;10.60;99.90
37289;DHT22;23174;49.462;11.000;2022-12-29T20:03:19;10.60;99.90
37289;DHT22;23174;49.462;11.000;2022-12-29T20:05:20;10.60;99.90
37289;DHT22;23174;49.462;11.000;2022-12-29T20:07:21;10.50;99.90
37289;DHT22;23174;49.462;11.000;2022-12-29T20:09:22;10.50;99.90
37289;DHT22;23174;49.462;11.000;2022-12-29T20:11:22;10.50;99.90
37289;DHT22;23174;49.462;11.000;2022-12-29T20:13:23;10.50;99.90
37289;DHT22;23174;49.462;11.000;2022-12-29T20:15:23;10.40;99.90
37289;DHT22;23174;49.462;11.000;2022-12-29T20:17:24;10.50;99.90
37289;DHT22;23174;49.462;11.000;2022-12-29T20:19:24;10.60;99.90
37289;DHT22;23174;49.462;11.000;2022-12-29T20:21:25;10.60;99.90
37289;DHT22;23174;49.462;11.000;2022-12-29T20:23:26;10.50;99.90
37289;DHT22;23174;49.462;11.000;2022-12-29T20:25:28;10.50;99.90
37289;DHT22;23174;49.462;11.000;2022-12-29T20:27:29;10.50;99.90
37289;DHT22;23174;49.462;11.000;2022-12-29T20:29:34;10.60;99.90
37289;DHT22;23174;49.462;11.000;2022-12-29T20:31:39;10.60;99.90
37289;DHT22;23174;49.462;11.000;2022-12-29T20:33:40;10.60;99.90
37289;DHT22;23174;49.462;11.000;2022-12-29T20:35:41;10.60;99.90
37289;DHT22;23174;49.462;11.000;2022-12-29T20:37:41;10.50;99.90
37289;DHT22;23174;49.462;11.000;2022-12-29T20:39:42;10.50;99.90
37289;DHT22;23174;49.462;11.000;2022-12-29T20:41:43;10.60;99.90
37289;DHT22;23174;49.462;11.000;2022-12-29T20:43:44;10.50;99.90
37289;DHT22;23174;49.462;11.000;2022-12-29T20:45:45;10.50;99.90
37289;DHT22;23174;49.462;11.000;2022-12-29T20:47:47;10.60;99.90
37289;DHT22;23174;49.462;11.000;2022-12-29T20:49:48;10.60;99.90
37289;DHT22;23174;49.462;11.000;2022-12-29T20:51:48;10.50;99.90
37289;DHT22;23174;49.462;11.000;2022-12-29T20:53:49;10.50;99.90
37289;DHT22;23174;49.462;11.000;2022-12-29T20:55:50;10.60;99.90
37289;DHT22;23174;49.462;11.000;2022-12-29T20:57:50;10.50;99.90
37289;DHT22;23174;49.462;11.000;2022-12-29T20:59:51;10.60;99.90
37289;DHT22;23174;49.462;11.000;2022-12-29T21:01:51;10.60;99.90
37289;DHT22;23174;49.462;11.000;2022-12-29T21:03:52;10.70;99.90
37289;DHT22;23174;49.462;11.000;2022-12-29T21:05:53;10.90;99.90
37289;DHT22;23174;49.462;11.000;2022-12-29T21:07:55;10.90;99.90
37289;DHT22;23174;49.462;11.000;2022-12-29T21:09:58;10.90;99.90
37289;DHT22;23174;49.462;11.000;2022-12-29T21:11:59;11.00;99.90
37289;DHT22;23174;49.462;11.000;2022-12-29T21:14:00;10.90;99.90
37289;DHT22;23174;49.462;11.000;2022-12-29T21:16:04;10.90;99.90
37289;DHT22;23174;49.462;11.000;2022-12-29T21:18:05;11.00;99.90
37289;DHT22;23174;49.462;11.000;2022-12-29T21:20:05;10.90;99.90
37289;DHT22;23174;49.462;11.000;2022-12-29T21:22:06;11.00;99.90
37289;DHT22;23174;49.462;11.000;2022-12-29T21:24:07;11.00;99.90
37289;DHT22;23174;49.462;11.000;2022-12-29T21:26:09;10.90;99.90
37289;DHT22;23174;49.462;11.000;2022-12-29T21:28:10;11.00;99.90
37289;DHT22;23174;49.462;11.000;2022-12-29T21:30:13;11.00;99.90
37289;DHT22;23174;49.462;11.000;2022-12-29T21:32:14;11.00;99.90
37289;DHT22;23174;49.462;11.000;2022-12-29T21:34:14;10.90;99.90
37289;DHT22;23174;49.462;11.000;2022-12-29T21:36:15;10.80;99.90
37289;DHT22;23174;49.462;11.000;2022-12-29T21:38:16;10.90;99.90
37289;DHT22;23174;49.462;11.000;2022-12-29T21:40:16;10.90;99.90
37289;DHT22;23174;49.462;11.000;2022-12-29T21:42:17;10.90;99.90
37289;DHT22;23174;49.462;11.000;2022-12-29T21:44:17;10.80;99.90
37289;DHT22;23174;49.462;11.000;2022-12-29T21:46:38;10.80;99.90
37289;DHT22;23174;49.462;11.000;2022-12-29T21:48:39;10.80;99.90
37289;DHT22;23174;49.462;11.000;2022-12-29T21:50:41;10.80;99.90
37289;DHT22;23174;49.462;11.000;2022-12-29T21:53:00;10.80;99.90
37289;DHT22;23174;49.462;11.000;2022-12-29T21:55:01;10.80;99.90
37289;DHT22;23174;49.462;11.000;2022-12-29T21:57:04;10.80;99.90
37289;DHT22;23174;49.462;11.000;2022-12-29T21:59:07;10.90;99.90
37289;DHT22;23174;49.462;11.000;2022-12-29T22:01:27;10.90;99.90
37289;DHT22;23174;49.462;11.000;2022-12-29T22:03:47;10.60;99.90
37289;DHT22;23174;49.462;11.000;2022-12-29T22:06:09;10.30;99.90
37289;DHT22;23174;49.462;11.000;2022-12-29T22:08:28;10.30;99.90
37289;DHT22;23174;49.462;11.000;2022-12-29T22:10:47;10.20;99.90
37289;DHT22;23174;49.462;11.000;2022-12-29T22:13:07;10.00;99.90
37289;DHT22;23174;49.462;11.000;2022-12-29T22:15:07;10.00;99.90
37289;DHT22;23174;49.462;11.000;2022-12-29T22:17:08;10.00;99.90
37289;DHT22;23174;49.462;11.000;2022-12-29T22:19:09;10.00;99.90
37289;DHT22;23174;49.462;11.000;2022-12-29T22:21:10;10.00;99.90
37289;DHT22;23174;49.462;11.000;2022-12-29T22:23:10;10.00;99.90
37289;DHT22;23174;49.462;11.000;2022-12-29T22:25:12;10.00;99.90
37289;DHT22;23174;49.462;11.000;2022-12-29T22:27:13;10.00;99.90
37289;DHT22;23174;49.462;11.000;2022-12-29T22:29:13;10.00;99.90
37289;DHT22;23174;49.462;11.000;2022-12-29T22:31:25;10.10;99.90
37289;DHT22;23174;49.462;11.000;2022-12-29T22:33:29;10.10;99.90
37289;DHT22;23174;49.462;11.000;2022-12-29T22:35:30;10.00;99.90
37289;DHT22;23174;49.462;11.000;2022-12-29T22:37:32;10.10;99.90
37289;DHT22;23174;49.462;11.000;2022-12-29T22:39:33;10.10;99.90
37289;DHT22;23174;49.462;11.000;2022-12-29T22:41:33;10.10;99.90
37289;DHT22;23174;49.462;11.000;2022-12-29T22:43:34;10.10;99.90
37289;DHT22;23174;49.462;11.000;2022-12-29T22:45:36;10.00;99.90
37289;DHT22;23174;49.462;11.000;2022-12-29T22:47:37;10.00;99.90
37289;DHT22;23174;49.462;11.000;2022-12-29T22:49:38;10.00;99.90
37289;DHT22;23174;49.462;11.000;2022-12-29T22:51:38;10.00;99.90
37289;DHT22;23174;49.462;11.000;2022-12-29T22:53:39;10.00;99.90
37289;DHT22;23174;49.462;11.000;2022-12-29T22:55:40;10.00;99.90
37289;DHT22;23174;49.462;11.000;2022-12-29T22:57:41;9.90;99.90
37289;DHT22;23174;49.462;11.000;2022-12-29T22:59:41;10.00;99.90
37289;DHT22;23174;49.462;11.000;2022-12-29T23:01:42;9.90;99.90
37289;DHT22;23174;49.462;11.000;2022-12-29T23:03:43;9.90;99.90
37289;DHT22;23174;49.462;11.000;2022-12-29T23:05:53;9.90;99.90
37289;DHT22;23174;49.462;11.000;2022-12-29T23:07:54;9.90;99.90
37289;DHT22;23174;49.462;11.000;2022-12-29T23:09:54;10.00;99.90
37289;DHT22;23174;49.462;11.000;2022-12-29T23:11:55;9.90;99.90
37289;DHT22;23174;49.462;11.000;2022-12-29T23:13:55;9.90;99.90
37289;DHT22;23174;49.462;11.000;2022-12-29T23:15:57;10.00;99.90
37289;DHT22;23174;49.462;11.000;2022-12-29T23:17:57;10.00;99.90
37289;DHT22;23174;49.462;11.000;2022-12-29T23:19:58;10.30;99.90
37289;DHT22;23174;49.462;11.000;2022-12-29T23:21:59;10.50;99.90
37289;DHT22;23174;49.462;11.000;2022-12-29T23:23:59;10.60;99.90
37289;DHT22;23174;49.462;11.000;2022-12-29T23:26:03;10.70;99.90
37289;DHT22;23174;49.462;11.000;2022-12-29T23:28:06;10.90;99.90
37289;DHT22;23174;49.462;11.000;2022-12-29T23:30:07;11.00;99.90
37289;DHT22;23174;49.462;11.000;2022-12-29T23:32:08;11.10;99.90
37289;DHT22;23174;49.462;11.000;2022-12-29T23:34:09;11.20;99.90
37289;DHT22;23174;49.462;11.000;2022-12-29T23:36:11;11.20;99.90
37289;DHT22;23174;49.462;11.000;2022-12-29T23:38:12;11.10;99.90
37289;DHT22;23174;49.462;11.000;2022-12-29T23:40:12;11.20;99.90
37289;DHT22;23174;49.462;11.000;2022-12-29T23:42:13;11.20;99.90
37289;DHT22;23174;49.462;11.000;2022-12-29T23:44:13;11.20;99.90
37289;DHT22;23174;49.462;11.000;2022-12-29T23:46:16;11.30;99.90
37289;DHT22;23174;49.462;11.000;2022-12-29T23:48:18;11.20;99.90
37289;DHT22;23174;49.462;11.000;2022-12-29T23:50:18;11.20;99.90
37289;DHT22;23174;49.462;11.000;2022-12-29T23:52:19;11.10;99.90
37289;DHT22;23174;49.462;11.000;2022-12-29T23:54:19;11.20;99.90
37289;DHT22;23174;49.462;11.000;2022-12-29T23:56:21;11.10;99.90
37289;DHT22;23174;49.462;11.000;2022-12-29T23:58:22;11.10;99.90
